sensor_id;sensor_type;location;lat;lon;timestamp;P1;durP1;ratioP1;P2;durP2;ratioP2
8285;SDS011;4181;43.416;24.598;2023-06-14T00:00:02;7.07;;;5.87;;
8285;SDS011;4181;43.416;24.598;2023-06-14T00:02:39;8.07;;;5.93;;
8285;SDS011;4181;43.416;24.598;2023-06-14T00:05:10;8.33;;;5.80;;
8285;SDS011;4181;43.416;24.598;2023-06-14T00:10:38;6.37;;;5.77;;
8285;SDS011;4181;43.416;24.598;2023-06-14T00:13:26;7.60;;;5.60;;
8285;SDS011;4181;43.416;24.598;2023-06-14T00:15:54;6.10;;;5.47;;
8285;SDS011;4181;43.416;24.598;2023-06-14T00:18:24;6.37;;;5.77;;
8285;SDS011;4181;43.416;24.598;2023-06-14T00:20:52;8.23;;;5.43;;
8285;SDS011;4181;43.416;24.598;2023-06-14T00:23:28;6.13;;;4.80;;
8285;SDS011;4181;43.416;24.598;2023-06-14T00:26:06;8.67;;;5.30;;
8285;SDS011;4181;43.416;24.598;2023-06-14T00:28:38;5.67;;;5.13;;
8285;SDS011;4181;43.416;24.598;2023-06-14T00:31:18;6.27;;;5.40;;
8285;SDS011;4181;43.416;24.598;2023-06-14T00:33:52;5.20;;;4.70;;
8285;SDS011;4181;43.416;24.598;2023-06-14T00:36:37;5.23;;;4.80;;
8285;SDS011;4181;43.416;24.598;2023-06-14T00:39:05;5.63;;;4.73;;
8285;SDS011;4181;43.416;24.598;2023-06-14T00:41:41;5.53;;;4.90;;
8285;SDS011;4181;43.416;24.598;2023-06-14T00:44:21;8.27;;;5.50;;
8285;SDS011;4181;43.416;24.598;2023-06-14T00:47:00;6.00;;;5.40;;
8285;SDS011;4181;43.416;24.598;2023-06-14T00:49:31;7.20;;;5.33;;
8285;SDS011;4181;43.416;24.598;2023-06-14T00:52:03;6.03;;;5.20;;
8285;SDS011;4181;43.416;24.598;2023-06-14T00:57:12;5.53;;;5.00;;
8285;SDS011;4181;43.416;24.598;2023-06-14T00:59:53;6.70;;;4.80;;
8285;SDS011;4181;43.416;24.598;2023-06-14T01:05:03;5.70;;;5.00;;
8285;SDS011;4181;43.416;24.598;2023-06-14T01:08:05;5.07;;;4.63;;
8285;SDS011;4181;43.416;24.598;2023-06-14T01:11:05;5.50;;;5.00;;
8285;SDS011;4181;43.416;24.598;2023-06-14T01:13:41;5.80;;;4.90;;
8285;SDS011;4181;43.416;24.598;2023-06-14T01:16:13;7.33;;;4.53;;
8285;SDS011;4181;43.416;24.598;2023-06-14T01:18:44;6.17;;;4.63;;
8285;SDS011;4181;43.416;24.598;2023-06-14T01:21:24;4.60;;;4.20;;
8285;SDS011;4181;43.416;24.598;2023-06-14T01:23:53;15.60;;;5.30;;
8285;SDS011;4181;43.416;24.598;2023-06-14T01:26:29;5.13;;;4.60;;
8285;SDS011;4181;43.416;24.598;2023-06-14T01:29:01;5.87;;;4.70;;
8285;SDS011;4181;43.416;24.598;2023-06-14T01:31:35;5.97;;;4.43;;
8285;SDS011;4181;43.416;24.598;2023-06-14T01:34:06;5.20;;;4.73;;
8285;SDS011;4181;43.416;24.598;2023-06-14T01:36:36;7.53;;;4.50;;
8285;SDS011;4181;43.416;24.598;2023-06-14T01:39:18;6.80;;;4.47;;
8285;SDS011;4181;43.416;24.598;2023-06-14T01:41:45;5.23;;;4.57;;
8285;SDS011;4181;43.416;24.598;2023-06-14T01:47:17;8.13;;;4.40;;
8285;SDS011;4181;43.416;24.598;2023-06-14T01:49:48;5.00;;;4.60;;
8285;SDS011;4181;43.416;24.598;2023-06-14T01:52:17;7.80;;;5.10;;
8285;SDS011;4181;43.416;24.598;2023-06-14T01:54:52;5.37;;;4.63;;
8285;SDS011;4181;43.416;24.598;2023-06-14T01:57:22;7.97;;;5.47;;
8285;SDS011;4181;43.416;24.598;2023-06-14T01:59:51;5.57;;;4.80;;
8285;SDS011;4181;43.416;24.598;2023-06-14T02:02:26;6.67;;;5.40;;
8285;SDS011;4181;43.416;24.598;2023-06-14T02:04:54;6.53;;;5.63;;
8285;SDS011;4181;43.416;24.598;2023-06-14T02:07:24;5.80;;;5.30;;
8285;SDS011;4181;43.416;24.598;2023-06-14T02:09:58;6.07;;;5.57;;
8285;SDS011;4181;43.416;24.598;2023-06-14T02:12:25;6.03;;;5.43;;
8285;SDS011;4181;43.416;24.598;2023-06-14T02:14:59;6.77;;;5.43;;
8285;SDS011;4181;43.416;24.598;2023-06-14T02:17:35;7.17;;;5.87;;
8285;SDS011;4181;43.416;24.598;2023-06-14T02:20:11;9.13;;;6.00;;
8285;SDS011;4181;43.416;24.598;2023-06-14T02:22:44;7.20;;;5.77;;
8285;SDS011;4181;43.416;24.598;2023-06-14T02:25:15;7.03;;;6.43;;
8285;SDS011;4181;43.416;24.598;2023-06-14T02:27:45;7.60;;;6.40;;
8285;SDS011;4181;43.416;24.598;2023-06-14T02:30:19;10.63;;;6.50;;
8285;SDS011;4181;43.416;24.598;2023-06-14T02:35:32;25.83;;;8.53;;
8285;SDS011;4181;43.416;24.598;2023-06-14T02:37:58;10.10;;;7.07;;
8285;SDS011;4181;43.416;24.598;2023-06-14T02:40:33;8.73;;;6.70;;
8285;SDS011;4181;43.416;24.598;2023-06-14T02:43:08;8.23;;;6.47;;
8285;SDS011;4181;43.416;24.598;2023-06-14T02:45:37;7.70;;;6.33;;
8285;SDS011;4181;43.416;24.598;2023-06-14T02:48:05;21.37;;;9.67;;
8285;SDS011;4181;43.416;24.598;2023-06-14T02:50:46;8.00;;;6.40;;
8285;SDS011;4181;43.416;24.598;2023-06-14T02:53:19;7.77;;;6.80;;
8285;SDS011;4181;43.416;24.598;2023-06-14T02:55:48;14.83;;;8.57;;
8285;SDS011;4181;43.416;24.598;2023-06-14T02:58:17;6.80;;;6.20;;
8285;SDS011;4181;43.416;24.598;2023-06-14T03:00:44;7.50;;;6.60;;
8285;SDS011;4181;43.416;24.598;2023-06-14T03:03:11;7.33;;;6.57;;
8285;SDS011;4181;43.416;24.598;2023-06-14T03:05:46;8.17;;;6.87;;
8285;SDS011;4181;43.416;24.598;2023-06-14T03:08:21;10.43;;;6.43;;
8285;SDS011;4181;43.416;24.598;2023-06-14T03:10:55;6.90;;;6.20;;
8285;SDS011;4181;43.416;24.598;2023-06-14T03:13:25;7.77;;;7.03;;
8285;SDS011;4181;43.416;24.598;2023-06-14T03:15:58;7.87;;;6.03;;
8285;SDS011;4181;43.416;24.598;2023-06-14T03:18:33;7.20;;;6.13;;
8285;SDS011;4181;43.416;24.598;2023-06-14T03:21:05;9.33;;;5.90;;
8285;SDS011;4181;43.416;24.598;2023-06-14T03:23:34;6.67;;;6.07;;
8285;SDS011;4181;43.416;24.598;2023-06-14T03:26:06;9.80;;;6.27;;
8285;SDS011;4181;43.416;24.598;2023-06-14T03:28:32;6.90;;;6.30;;
8285;SDS011;4181;43.416;24.598;2023-06-14T03:31:16;10.13;;;6.97;;
8285;SDS011;4181;43.416;24.598;2023-06-14T03:33:48;6.63;;;6.03;;
8285;SDS011;4181;43.416;24.598;2023-06-14T03:36:19;7.47;;;5.93;;
8285;SDS011;4181;43.416;24.598;2023-06-14T03:38:51;7.60;;;6.67;;
8285;SDS011;4181;43.416;24.598;2023-06-14T03:41:22;9.13;;;6.10;;
8285;SDS011;4181;43.416;24.598;2023-06-14T03:43:57;6.87;;;6.27;;
8285;SDS011;4181;43.416;24.598;2023-06-14T03:46:27;7.67;;;6.80;;
8285;SDS011;4181;43.416;24.598;2023-06-14T03:49:06;7.40;;;6.53;;
8285;SDS011;4181;43.416;24.598;2023-06-14T03:51:38;11.20;;;7.23;;
8285;SDS011;4181;43.416;24.598;2023-06-14T03:54:20;7.60;;;6.87;;
8285;SDS011;4181;43.416;24.598;2023-06-14T03:57:01;11.40;;;8.93;;
8285;SDS011;4181;43.416;24.598;2023-06-14T03:59:34;9.57;;;7.43;;
8285;SDS011;4181;43.416;24.598;2023-06-14T04:02:07;8.13;;;7.37;;
8285;SDS011;4181;43.416;24.598;2023-06-14T04:04:37;8.77;;;7.90;;
8285;SDS011;4181;43.416;24.598;2023-06-14T04:07:16;12.20;;;8.17;;
8285;SDS011;4181;43.416;24.598;2023-06-14T04:09:44;10.43;;;8.27;;
8285;SDS011;4181;43.416;24.598;2023-06-14T04:12:17;10.37;;;8.93;;
8285;SDS011;4181;43.416;24.598;2023-06-14T04:14:51;11.03;;;8.80;;
8285;SDS011;4181;43.416;24.598;2023-06-14T04:17:20;10.70;;;9.13;;
8285;SDS011;4181;43.416;24.598;2023-06-14T04:19:54;14.43;;;9.23;;
8285;SDS011;4181;43.416;24.598;2023-06-14T04:22:31;10.80;;;8.83;;
8285;SDS011;4181;43.416;24.598;2023-06-14T04:25:06;12.73;;;8.90;;
8285;SDS011;4181;43.416;24.598;2023-06-14T04:27:35;9.50;;;8.50;;
8285;SDS011;4181;43.416;24.598;2023-06-14T04:30:01;14.97;;;8.80;;
8285;SDS011;4181;43.416;24.598;2023-06-14T04:32:33;11.30;;;8.63;;
8285;SDS011;4181;43.416;24.598;2023-06-14T04:35:10;19.57;;;8.73;;
8285;SDS011;4181;43.416;24.598;2023-06-14T04:37:43;10.40;;;9.40;;
8285;SDS011;4181;43.416;24.598;2023-06-14T04:40:15;11.70;;;9.53;;
8285;SDS011;4181;43.416;24.598;2023-06-14T04:42:46;12.23;;;10.03;;
8285;SDS011;4181;43.416;24.598;2023-06-14T04:45:18;18.23;;;11.37;;
8285;SDS011;4181;43.416;24.598;2023-06-14T04:47:47;14.03;;;9.90;;
8285;SDS011;4181;43.416;24.598;2023-06-14T04:50:16;15.37;;;10.10;;
8285;SDS011;4181;43.416;24.598;2023-06-14T04:52:48;15.00;;;10.83;;
8285;SDS011;4181;43.416;24.598;2023-06-14T04:55:19;11.60;;;10.40;;
8285;SDS011;4181;43.416;24.598;2023-06-14T04:57:47;18.43;;;11.60;;
8285;SDS011;4181;43.416;24.598;2023-06-14T05:00:14;13.80;;;10.93;;
8285;SDS011;4181;43.416;24.598;2023-06-14T05:02:50;19.50;;;11.23;;
8285;SDS011;4181;43.416;24.598;2023-06-14T05:05:34;20.13;;;12.03;;
8285;SDS011;4181;43.416;24.598;2023-06-14T05:08:22;17.77;;;10.57;;
8285;SDS011;4181;43.416;24.598;2023-06-14T05:13:43;15.20;;;10.80;;
8285;SDS011;4181;43.416;24.598;2023-06-14T05:16:18;16.53;;;12.53;;
8285;SDS011;4181;43.416;24.598;2023-06-14T05:18:50;13.67;;;10.20;;
8285;SDS011;4181;43.416;24.598;2023-06-14T05:21:20;14.43;;;11.00;;
8285;SDS011;4181;43.416;24.598;2023-06-14T05:23:53;14.77;;;11.57;;
8285;SDS011;4181;43.416;24.598;2023-06-14T05:26:28;14.33;;;11.63;;
8285;SDS011;4181;43.416;24.598;2023-06-14T05:28:56;14.33;;;11.10;;
8285;SDS011;4181;43.416;24.598;2023-06-14T05:31:29;15.23;;;11.70;;
8285;SDS011;4181;43.416;24.598;2023-06-14T05:34:01;15.20;;;13.33;;
8285;SDS011;4181;43.416;24.598;2023-06-14T05:36:27;16.73;;;14.63;;
8285;SDS011;4181;43.416;24.598;2023-06-14T05:39:05;20.40;;;14.70;;
8285;SDS011;4181;43.416;24.598;2023-06-14T05:41:42;19.73;;;13.30;;
8285;SDS011;4181;43.416;24.598;2023-06-14T05:44:19;18.13;;;12.17;;
8285;SDS011;4181;43.416;24.598;2023-06-14T05:46:57;16.60;;;11.47;;
8285;SDS011;4181;43.416;24.598;2023-06-14T05:49:24;17.23;;;12.20;;
8285;SDS011;4181;43.416;24.598;2023-06-14T05:51:53;15.17;;;12.07;;
8285;SDS011;4181;43.416;24.598;2023-06-14T05:54:32;18.47;;;11.83;;
8285;SDS011;4181;43.416;24.598;2023-06-14T05:57:05;18.50;;;12.27;;
8285;SDS011;4181;43.416;24.598;2023-06-14T06:02:16;13.20;;;10.77;;
8285;SDS011;4181;43.416;24.598;2023-06-14T06:04:43;12.67;;;10.20;;
8285;SDS011;4181;43.416;24.598;2023-06-14T06:07:12;15.33;;;11.30;;
8285;SDS011;4181;43.416;24.598;2023-06-14T06:09:46;17.13;;;11.43;;
8285;SDS011;4181;43.416;24.598;2023-06-14T06:12:15;15.53;;;12.17;;
8285;SDS011;4181;43.416;24.598;2023-06-14T06:14:40;31.00;;;14.70;;
8285;SDS011;4181;43.416;24.598;2023-06-14T06:17:07;14.83;;;11.87;;
8285;SDS011;4181;43.416;24.598;2023-06-14T06:19:49;12.83;;;11.60;;
8285;SDS011;4181;43.416;24.598;2023-06-14T06:22:21;22.27;;;14.53;;
8285;SDS011;4181;43.416;24.598;2023-06-14T06:24:49;16.83;;;13.17;;
8285;SDS011;4181;43.416;24.598;2023-06-14T06:27:21;19.27;;;13.30;;
8285;SDS011;4181;43.416;24.598;2023-06-14T06:29:51;15.83;;;12.80;;
8285;SDS011;4181;43.416;24.598;2023-06-14T06:32:28;17.33;;;12.93;;
8285;SDS011;4181;43.416;24.598;2023-06-14T06:34:56;21.90;;;13.53;;
8285;SDS011;4181;43.416;24.598;2023-06-14T06:37:24;18.63;;;14.60;;
8285;SDS011;4181;43.416;24.598;2023-06-14T06:39:51;18.13;;;14.27;;
8285;SDS011;4181;43.416;24.598;2023-06-14T06:42:21;19.53;;;14.87;;
8285;SDS011;4181;43.416;24.598;2023-06-14T06:44:51;21.83;;;14.63;;
8285;SDS011;4181;43.416;24.598;2023-06-14T06:47:25;25.93;;;14.53;;
8285;SDS011;4181;43.416;24.598;2023-06-14T06:50:00;25.40;;;16.50;;
8285;SDS011;4181;43.416;24.598;2023-06-14T06:55:10;21.40;;;16.17;;
8285;SDS011;4181;43.416;24.598;2023-06-14T06:57:44;22.20;;;17.20;;
8285;SDS011;4181;43.416;24.598;2023-06-14T07:00:14;24.10;;;16.40;;
8285;SDS011;4181;43.416;24.598;2023-06-14T07:02:43;20.23;;;16.07;;
8285;SDS011;4181;43.416;24.598;2023-06-14T07:05:15;19.50;;;15.17;;
8285;SDS011;4181;43.416;24.598;2023-06-14T07:07:49;18.50;;;14.63;;
8285;SDS011;4181;43.416;24.598;2023-06-14T07:10:14;21.87;;;14.93;;
8285;SDS011;4181;43.416;24.598;2023-06-14T07:15:30;18.53;;;15.53;;
8285;SDS011;4181;43.416;24.598;2023-06-14T07:18:10;28.73;;;17.43;;
8285;SDS011;4181;43.416;24.598;2023-06-14T07:20:39;21.63;;;16.93;;
8285;SDS011;4181;43.416;24.598;2023-06-14T07:23:15;21.17;;;16.27;;
8285;SDS011;4181;43.416;24.598;2023-06-14T07:25:46;19.87;;;16.13;;
8285;SDS011;4181;43.416;24.598;2023-06-14T07:28:16;19.87;;;17.20;;
8285;SDS011;4181;43.416;24.598;2023-06-14T07:30:47;23.53;;;16.20;;
8285;SDS011;4181;43.416;24.598;2023-06-14T07:33:18;19.23;;;16.27;;
8285;SDS011;4181;43.416;24.598;2023-06-14T07:35:47;19.70;;;14.97;;
8285;SDS011;4181;43.416;24.598;2023-06-14T07:38:17;24.57;;;16.20;;
8285;SDS011;4181;43.416;24.598;2023-06-14T07:40:52;19.23;;;15.23;;
8285;SDS011;4181;43.416;24.598;2023-06-14T07:43:21;18.23;;;15.93;;
8285;SDS011;4181;43.416;24.598;2023-06-14T07:45:50;22.73;;;16.17;;
8285;SDS011;4181;43.416;24.598;2023-06-14T07:48:34;25.20;;;16.33;;
8285;SDS011;4181;43.416;24.598;2023-06-14T07:51:07;20.43;;;16.03;;
8285;SDS011;4181;43.416;24.598;2023-06-14T07:53:41;20.83;;;17.17;;
8285;SDS011;4181;43.416;24.598;2023-06-14T07:56:13;30.37;;;18.07;;
8285;SDS011;4181;43.416;24.598;2023-06-14T07:58:54;22.03;;;16.33;;
8285;SDS011;4181;43.416;24.598;2023-06-14T08:01:22;21.37;;;16.67;;
8285;SDS011;4181;43.416;24.598;2023-06-14T08:03:53;20.17;;;17.13;;
8285;SDS011;4181;43.416;24.598;2023-06-14T08:06:25;25.07;;;17.53;;
8285;SDS011;4181;43.416;24.598;2023-06-14T08:08:57;24.20;;;17.83;;
8285;SDS011;4181;43.416;24.598;2023-06-14T08:11:27;28.07;;;17.03;;
8285;SDS011;4181;43.416;24.598;2023-06-14T08:13:57;27.40;;;17.93;;
8285;SDS011;4181;43.416;24.598;2023-06-14T08:16:30;24.80;;;16.53;;
8285;SDS011;4181;43.416;24.598;2023-06-14T08:18:58;22.90;;;17.50;;
8285;SDS011;4181;43.416;24.598;2023-06-14T08:21:27;25.27;;;16.80;;
8285;SDS011;4181;43.416;24.598;2023-06-14T08:24:00;22.90;;;16.77;;
8285;SDS011;4181;43.416;24.598;2023-06-14T08:26:37;20.17;;;16.40;;
8285;SDS011;4181;43.416;24.598;2023-06-14T08:29:22;21.40;;;16.70;;
8285;SDS011;4181;43.416;24.598;2023-06-14T08:31:48;21.20;;;17.00;;
8285;SDS011;4181;43.416;24.598;2023-06-14T08:34:28;19.40;;;16.70;;
8285;SDS011;4181;43.416;24.598;2023-06-14T08:37:03;18.33;;;16.37;;
8285;SDS011;4181;43.416;24.598;2023-06-14T08:39:34;20.73;;;15.83;;
8285;SDS011;4181;43.416;24.598;2023-06-14T08:42:02;24.47;;;15.90;;
8285;SDS011;4181;43.416;24.598;2023-06-14T08:44:33;19.47;;;16.20;;
8285;SDS011;4181;43.416;24.598;2023-06-14T08:47:08;22.23;;;15.30;;
8285;SDS011;4181;43.416;24.598;2023-06-14T08:52:22;19.90;;;15.40;;
8285;SDS011;4181;43.416;24.598;2023-06-14T08:55:04;34.60;;;29.97;;
8285;SDS011;4181;43.416;24.598;2023-06-14T08:57:31;20.20;;;15.40;;
8285;SDS011;4181;43.416;24.598;2023-06-14T09:00:05;19.43;;;15.73;;
8285;SDS011;4181;43.416;24.598;2023-06-14T09:02:40;20.40;;;14.73;;
8285;SDS011;4181;43.416;24.598;2023-06-14T09:05:10;17.70;;;12.77;;
8285;SDS011;4181;43.416;24.598;2023-06-14T09:07:44;14.30;;;12.90;;
8285;SDS011;4181;43.416;24.598;2023-06-14T09:10:21;19.03;;;13.33;;
8285;SDS011;4181;43.416;24.598;2023-06-14T09:13:02;18.00;;;12.20;;
8285;SDS011;4181;43.416;24.598;2023-06-14T09:15:35;15.70;;;12.87;;
8285;SDS011;4181;43.416;24.598;2023-06-14T09:18:08;16.03;;;12.60;;
8285;SDS011;4181;43.416;24.598;2023-06-14T09:20:47;19.07;;;12.57;;
8285;SDS011;4181;43.416;24.598;2023-06-14T09:25:56;14.50;;;12.70;;
8285;SDS011;4181;43.416;24.598;2023-06-14T09:28:31;14.13;;;12.60;;
8285;SDS011;4181;43.416;24.598;2023-06-14T09:31:04;18.37;;;12.43;;
8285;SDS011;4181;43.416;24.598;2023-06-14T09:33:34;16.33;;;12.60;;
8285;SDS011;4181;43.416;24.598;2023-06-14T09:36:14;17.97;;;13.50;;
8285;SDS011;4181;43.416;24.598;2023-06-14T09:39:00;25.03;;;17.70;;
8285;SDS011;4181;43.416;24.598;2023-06-14T09:41:34;20.07;;;13.93;;
8285;SDS011;4181;43.416;24.598;2023-06-14T09:44:04;19.00;;;14.67;;
8285;SDS011;4181;43.416;24.598;2023-06-14T09:46:40;20.93;;;12.60;;
8285;SDS011;4181;43.416;24.598;2023-06-14T09:49:12;15.03;;;12.03;;
8285;SDS011;4181;43.416;24.598;2023-06-14T09:51:45;15.40;;;13.17;;
8285;SDS011;4181;43.416;24.598;2023-06-14T09:54:19;15.03;;;12.60;;
8285;SDS011;4181;43.416;24.598;2023-06-14T09:56:51;15.93;;;12.43;;
8285;SDS011;4181;43.416;24.598;2023-06-14T09:59:23;20.40;;;12.50;;
8285;SDS011;4181;43.416;24.598;2023-06-14T10:02:04;15.10;;;12.27;;
8285;SDS011;4181;43.416;24.598;2023-06-14T10:04:39;16.80;;;12.00;;
8285;SDS011;4181;43.416;24.598;2023-06-14T10:07:23;15.27;;;11.17;;
8285;SDS011;4181;43.416;24.598;2023-06-14T10:10:11;13.23;;;11.47;;
8285;SDS011;4181;43.416;24.598;2023-06-14T10:12:45;13.07;;;11.60;;
8285;SDS011;4181;43.416;24.598;2023-06-14T10:15:18;18.97;;;12.23;;
8285;SDS011;4181;43.416;24.598;2023-06-14T10:17:54;14.60;;;11.60;;
8285;SDS011;4181;43.416;24.598;2023-06-14T10:24:00;14.10;;;12.27;;
8285;SDS011;4181;43.416;24.598;2023-06-14T10:26:29;17.27;;;12.10;;
8285;SDS011;4181;43.416;24.598;2023-06-14T10:29:08;15.90;;;11.53;;
8285;SDS011;4181;43.416;24.598;2023-06-14T10:31:48;16.83;;;12.07;;
8285;SDS011;4181;43.416;24.598;2023-06-14T10:34:31;13.20;;;11.63;;
8285;SDS011;4181;43.416;24.598;2023-06-14T10:37:04;12.00;;;10.90;;
8285;SDS011;4181;43.416;24.598;2023-06-14T10:39:42;12.93;;;10.77;;
8285;SDS011;4181;43.416;24.598;2023-06-14T10:42:13;12.97;;;9.87;;
8285;SDS011;4181;43.416;24.598;2023-06-14T10:44:53;13.70;;;10.23;;
8285;SDS011;4181;43.416;24.598;2023-06-14T10:47:27;11.13;;;10.10;;
8285;SDS011;4181;43.416;24.598;2023-06-14T10:49:58;11.20;;;10.00;;
8285;SDS011;4181;43.416;24.598;2023-06-14T10:52:37;14.73;;;9.73;;
8285;SDS011;4181;43.416;24.598;2023-06-14T10:55:17;11.40;;;9.27;;
8285;SDS011;4181;43.416;24.598;2023-06-14T10:57:47;11.73;;;9.13;;
8285;SDS011;4181;43.416;24.598;2023-06-14T11:00:23;12.70;;;9.60;;
8285;SDS011;4181;43.416;24.598;2023-06-14T11:05:59;15.40;;;11.80;;
8285;SDS011;4181;43.416;24.598;2023-06-14T11:14:38;16.17;;;10.63;;
8285;SDS011;4181;43.416;24.598;2023-06-14T11:17:05;15.63;;;12.50;;
8285;SDS011;4181;43.416;24.598;2023-06-14T11:19:36;14.00;;;12.50;;
8285;SDS011;4181;43.416;24.598;2023-06-14T11:22:17;14.40;;;11.63;;
8285;SDS011;4181;43.416;24.598;2023-06-14T11:24:52;15.17;;;11.33;;
8285;SDS011;4181;43.416;24.598;2023-06-14T11:27:29;13.67;;;11.43;;
8285;SDS011;4181;43.416;24.598;2023-06-14T11:30:03;12.93;;;10.80;;
8285;SDS011;4181;43.416;24.598;2023-06-14T11:32:39;13.60;;;12.17;;
8285;SDS011;4181;43.416;24.598;2023-06-14T11:35:09;14.20;;;11.57;;
8285;SDS011;4181;43.416;24.598;2023-06-14T11:37:36;12.40;;;11.20;;
8285;SDS011;4181;43.416;24.598;2023-06-14T11:40:09;12.23;;;9.33;;
8285;SDS011;4181;43.416;24.598;2023-06-14T11:42:39;12.50;;;9.07;;
8285;SDS011;4181;43.416;24.598;2023-06-14T11:45:18;10.03;;;9.03;;
8285;SDS011;4181;43.416;24.598;2023-06-14T11:47:49;11.97;;;9.73;;
8285;SDS011;4181;43.416;24.598;2023-06-14T11:50:22;12.50;;;10.20;;
8285;SDS011;4181;43.416;24.598;2023-06-14T11:53:05;11.73;;;10.53;;
8285;SDS011;4181;43.416;24.598;2023-06-14T11:55:38;13.03;;;11.73;;
8285;SDS011;4181;43.416;24.598;2023-06-14T11:58:07;12.47;;;11.17;;
8285;SDS011;4181;43.416;24.598;2023-06-14T12:00:39;14.40;;;10.90;;
8285;SDS011;4181;43.416;24.598;2023-06-14T12:03:23;14.37;;;11.07;;
8285;SDS011;4181;43.416;24.598;2023-06-14T12:06:03;12.53;;;10.90;;
8285;SDS011;4181;43.416;24.598;2023-06-14T12:08:39;15.10;;;10.27;;
8285;SDS011;4181;43.416;24.598;2023-06-14T12:11:13;12.70;;;9.87;;
8285;SDS011;4181;43.416;24.598;2023-06-14T12:13:44;10.93;;;9.83;;
8285;SDS011;4181;43.416;24.598;2023-06-14T12:16:14;14.07;;;9.97;;
8285;SDS011;4181;43.416;24.598;2023-06-14T12:18:46;77.90;;;67.83;;
8285;SDS011;4181;43.416;24.598;2023-06-14T12:21:28;16.77;;;11.13;;
8285;SDS011;4181;43.416;24.598;2023-06-14T12:23:55;11.30;;;10.10;;
8285;SDS011;4181;43.416;24.598;2023-06-14T12:26:27;14.70;;;10.23;;
8285;SDS011;4181;43.416;24.598;2023-06-14T12:28:58;10.47;;;8.40;;
8285;SDS011;4181;43.416;24.598;2023-06-14T12:31:29;9.13;;;8.30;;
8285;SDS011;4181;43.416;24.598;2023-06-14T12:34:01;11.17;;;8.60;;
8285;SDS011;4181;43.416;24.598;2023-06-14T12:36:30;8.83;;;7.13;;
8285;SDS011;4181;43.416;24.598;2023-06-14T12:39:10;9.73;;;8.73;;
8285;SDS011;4181;43.416;24.598;2023-06-14T12:41:41;13.53;;;10.00;;
8285;SDS011;4181;43.416;24.598;2023-06-14T12:44:11;10.83;;;9.23;;
8285;SDS011;4181;43.416;24.598;2023-06-14T12:46:40;9.93;;;9.03;;
8285;SDS011;4181;43.416;24.598;2023-06-14T12:49:19;10.67;;;9.03;;
8285;SDS011;4181;43.416;24.598;2023-06-14T12:51:46;10.87;;;9.73;;
8285;SDS011;4181;43.416;24.598;2023-06-14T12:54:25;13.33;;;9.87;;
8285;SDS011;4181;43.416;24.598;2023-06-14T12:57:03;12.83;;;9.67;;
8285;SDS011;4181;43.416;24.598;2023-06-14T12:59:33;11.23;;;9.00;;
8285;SDS011;4181;43.416;24.598;2023-06-14T13:02:17;14.20;;;9.07;;
8285;SDS011;4181;43.416;24.598;2023-06-14T13:07:31;19.83;;;12.53;;
8285;SDS011;4181;43.416;24.598;2023-06-14T13:10:00;23.57;;;19.03;;
8285;SDS011;4181;43.416;24.598;2023-06-14T13:12:30;21.17;;;16.87;;
8285;SDS011;4181;43.416;24.598;2023-06-14T13:15:10;10.00;;;8.07;;
8285;SDS011;4181;43.416;24.598;2023-06-14T13:17:40;8.00;;;7.20;;
8285;SDS011;4181;43.416;24.598;2023-06-14T13:20:20;10.43;;;7.43;;
8285;SDS011;4181;43.416;24.598;2023-06-14T13:22:48;9.87;;;7.67;;
8285;SDS011;4181;43.416;24.598;2023-06-14T13:25:19;8.43;;;7.63;;
8285;SDS011;4181;43.416;24.598;2023-06-14T13:27:51;12.20;;;9.23;;
8285;SDS011;4181;43.416;24.598;2023-06-14T13:30:31;8.93;;;8.03;;
8285;SDS011;4181;43.416;24.598;2023-06-14T13:33:05;9.87;;;7.23;;
8285;SDS011;4181;43.416;24.598;2023-06-14T13:35:34;8.33;;;6.93;;
8285;SDS011;4181;43.416;24.598;2023-06-14T13:38:02;8.13;;;7.30;;
8285;SDS011;4181;43.416;24.598;2023-06-14T13:40:30;10.70;;;7.73;;
8285;SDS011;4181;43.416;24.598;2023-06-14T13:43:07;9.40;;;7.60;;
8285;SDS011;4181;43.416;24.598;2023-06-14T13:45:33;9.47;;;7.50;;
8285;SDS011;4181;43.416;24.598;2023-06-14T13:48:08;7.10;;;6.50;;
8285;SDS011;4181;43.416;24.598;2023-06-14T13:50:38;6.87;;;6.13;;
8285;SDS011;4181;43.416;24.598;2023-06-14T13:53:08;6.77;;;6.03;;
8285;SDS011;4181;43.416;24.598;2023-06-14T13:55:37;6.37;;;5.80;;
8285;SDS011;4181;43.416;24.598;2023-06-14T13:58:10;7.20;;;6.50;;
8285;SDS011;4181;43.416;24.598;2023-06-14T14:03:29;8.13;;;6.80;;
8285;SDS011;4181;43.416;24.598;2023-06-14T14:05:58;7.93;;;6.37;;
8285;SDS011;4181;43.416;24.598;2023-06-14T14:08:34;15.67;;;13.97;;
8285;SDS011;4181;43.416;24.598;2023-06-14T14:11:04;13.77;;;12.33;;
8285;SDS011;4181;43.416;24.598;2023-06-14T14:13:37;6.77;;;5.60;;
8285;SDS011;4181;43.416;24.598;2023-06-14T14:16:08;6.17;;;5.67;;
8285;SDS011;4181;43.416;24.598;2023-06-14T14:18:36;6.93;;;5.57;;
8285;SDS011;4181;43.416;24.598;2023-06-14T14:21:09;6.70;;;6.07;;
8285;SDS011;4181;43.416;24.598;2023-06-14T14:23:40;7.03;;;6.43;;
8285;SDS011;4181;43.416;24.598;2023-06-14T14:26:20;7.23;;;6.53;;
8285;SDS011;4181;43.416;24.598;2023-06-14T14:28:52;10.33;;;6.90;;
8285;SDS011;4181;43.416;24.598;2023-06-14T14:31:29;10.77;;;6.37;;
8285;SDS011;4181;43.416;24.598;2023-06-14T14:33:58;6.93;;;6.30;;
8285;SDS011;4181;43.416;24.598;2023-06-14T14:36:38;10.27;;;6.20;;
8285;SDS011;4181;43.416;24.598;2023-06-14T14:39:20;6.20;;;5.70;;
8285;SDS011;4181;43.416;24.598;2023-06-14T14:42:03;6.60;;;6.00;;
8285;SDS011;4181;43.416;24.598;2023-06-14T14:44:35;6.30;;;5.70;;
8285;SDS011;4181;43.416;24.598;2023-06-14T14:47:08;6.37;;;5.87;;
8285;SDS011;4181;43.416;24.598;2023-06-14T14:49:36;6.77;;;5.50;;
8285;SDS011;4181;43.416;24.598;2023-06-14T14:52:15;5.90;;;5.27;;
8285;SDS011;4181;43.416;24.598;2023-06-14T14:54:54;11.83;;;6.40;;
8285;SDS011;4181;43.416;24.598;2023-06-14T14:57:26;7.53;;;5.60;;
8285;SDS011;4181;43.416;24.598;2023-06-14T15:00:12;7.53;;;6.07;;
8285;SDS011;4181;43.416;24.598;2023-06-14T15:02:50;7.07;;;6.17;;
8285;SDS011;4181;43.416;24.598;2023-06-14T15:05:17;6.53;;;5.27;;
8285;SDS011;4181;43.416;24.598;2023-06-14T15:07:43;5.30;;;4.60;;
8285;SDS011;4181;43.416;24.598;2023-06-14T15:10:11;5.67;;;4.67;;
8285;SDS011;4181;43.416;24.598;2023-06-14T15:12:44;6.37;;;5.17;;
8285;SDS011;4181;43.416;24.598;2023-06-14T15:15:10;6.63;;;5.17;;
8285;SDS011;4181;43.416;24.598;2023-06-14T15:17:38;6.17;;;5.57;;
8285;SDS011;4181;43.416;24.598;2023-06-14T15:20:19;7.70;;;5.40;;
8285;SDS011;4181;43.416;24.598;2023-06-14T15:22:55;5.63;;;5.13;;
8285;SDS011;4181;43.416;24.598;2023-06-14T15:25:28;5.17;;;4.57;;
8285;SDS011;4181;43.416;24.598;2023-06-14T15:28:06;4.67;;;4.17;;
8285;SDS011;4181;43.416;24.598;2023-06-14T15:30:36;6.87;;;4.77;;
8285;SDS011;4181;43.416;24.598;2023-06-14T15:33:14;4.97;;;4.47;;
8285;SDS011;4181;43.416;24.598;2023-06-14T15:35:52;4.57;;;4.17;;
8285;SDS011;4181;43.416;24.598;2023-06-14T15:38:21;5.60;;;4.40;;
8285;SDS011;4181;43.416;24.598;2023-06-14T15:41:04;7.03;;;4.93;;
8285;SDS011;4181;43.416;24.598;2023-06-14T15:43:32;5.43;;;4.90;;
8285;SDS011;4181;43.416;24.598;2023-06-14T15:46:10;12.73;;;9.00;;
8285;SDS011;4181;43.416;24.598;2023-06-14T15:48:41;16.50;;;12.13;;
8285;SDS011;4181;43.416;24.598;2023-06-14T15:51:15;12.07;;;6.93;;
8285;SDS011;4181;43.416;24.598;2023-06-14T15:53:47;6.93;;;5.60;;
8285;SDS011;4181;43.416;24.598;2023-06-14T15:56:28;10.90;;;5.60;;
8285;SDS011;4181;43.416;24.598;2023-06-14T15:59:01;9.87;;;6.00;;
8285;SDS011;4181;43.416;24.598;2023-06-14T16:01:32;9.67;;;4.93;;
8285;SDS011;4181;43.416;24.598;2023-06-14T16:04:05;10.13;;;5.50;;
8285;SDS011;4181;43.416;24.598;2023-06-14T16:06:39;8.03;;;5.37;;
8285;SDS011;4181;43.416;24.598;2023-06-14T16:09:05;5.50;;;5.00;;
8285;SDS011;4181;43.416;24.598;2023-06-14T16:11:35;5.93;;;4.67;;